Time;durP1;ratioP1;P1;durP2;ratioP2;P2;SDS_P1;SDS_P2;PMS_P1;PMS_P2;Temp;Humidity;BMP_temperature;BMP_pressure;BME280_temperature;BME280_humidity;BME280_pressure;Samples;Min_cycle;Max_cycle;Signal;HPM_P1;HPM_P2
2021/08/18 00:00:42;;;;;;;12.7;7.6;;;;;;;12.6;100;95487.28;;;;
2021/08/18 00:01:45;;;;;;;12.7;7.6;;;;;;;12.6;100;95487.28;;;;
2021/08/18 00:02:46;;;;;;;12.7;7.6;;;;;;;12.6;100;95487.28;;;;
2021/08/18 00:03:46;;;;;;;12.7;7.6;;;;;;;12.6;100;95487.28;;;;
2021/08/18 00:04:47;;;;;;;12.7;7.6;;;;;;;12.6;100;95487.28;;;;
2021/08/18 00:05:47;;;;;;;12.7;7.6;;;;;;;12.6;100;95487.28;;;;
2021/08/18 00:06:48;;;;;;;12.85;7.849999;;;;;;;12.5;100;95480.3;;;;
2021/08/18 00:07:49;;;;;;;12.85;7.849999;;;;;;;12.5;100;95480.3;;;;
2021/08/18 00:08:49;;;;;;;12.85;7.849999;;;;;;;12.5;100;95480.3;;;;
2021/08/18 00:09:50;;;;;;;12.85;7.849999;;;;;;;12.5;100;95480.3;;;;
2021/08/18 00:10:50;;;;;;;12.85;7.849999;;;;;;;12.5;100;95480.3;;;;
2021/08/18 00:11:51;;;;;;;12.85;7.849999;;;;;;;12.5;100;95480.3;;;;
2021/08/18 00:12:52;;;;;;;12.85;7.849999;;;;;;;12.5;100;95480.3;;;;
2021/08/18 00:13:52;;;;;;;12.85;7.849999;;;;;;;12.5;100;95480.3;;;;
2021/08/18 00:14:53;;;;;;;12.85;7.849999;;;;;;;12.5;100;95480.3;;;;
2021/08/18 00:15:56;;;;;;;12.85;7.849999;;;;;;;12.5;100;95480.3;;;;
2021/08/18 00:16:56;;;;;;;12.85;7.849999;;;;;;;12.5;100;95480.3;;;;
2021/08/18 00:18:00;;;;;;;12.05;7.550001;;;;;;;12.49;100;95478.27;;;;
2021/08/18 00:19:00;;;;;;;12.05;7.550001;;;;;;;12.49;100;95478.27;;;;
2021/08/18 00:20:01;;;;;;;12.05;7.550001;;;;;;;12.49;100;95478.27;;;;
2021/08/18 00:21:02;;;;;;;12.05;7.550001;;;;;;;12.49;100;95478.27;;;;
2021/08/18 00:22:03;;;;;;;12.05;7.550001;;;;;;;12.49;100;95478.27;;;;
2021/08/18 00:23:04;;;;;;;12.05;7.550001;;;;;;;12.49;100;95478.27;;;;
2021/08/18 00:24:05;;;;;;;12.05;7.550001;;;;;;;12.49;100;95478.27;;;;
2021/08/18 00:25:05;;;;;;;12.05;7.550001;;;;;;;12.49;100;95478.27;;;;
2021/08/18 00:26:07;;;;;;;12.05;7.550001;;;;;;;12.49;100;95478.27;;;;
2021/08/18 00:27:08;;;;;;;12.05;7.550001;;;;;;;12.49;100;95478.27;;;;
2021/08/18 00:28:08;;;;;;;13.1;7.4;;;;;;;12.49;100;95480.44;;;;
2021/08/18 00:29:09;;;;;;;13.1;7.4;;;;;;;12.49;100;95480.44;;;;
2021/08/18 00:30:09;;;;;;;13.1;7.4;;;;;;;12.49;100;95480.44;;;;
2021/08/18 00:31:13;;;;;;;13.1;7.4;;;;;;;12.49;100;95480.44;;;;
2021/08/18 00:32:14;;;;;;;13.1;7.4;;;;;;;12.49;100;95480.44;;;;
2021/08/18 00:33:14;;;;;;;13.1;7.4;;;;;;;12.49;100;95480.44;;;;
2021/08/18 00:34:15;;;;;;;13.1;7.4;;;;;;;12.49;100;95480.44;;;;
2021/08/18 00:35:15;;;;;;;13.1;7.4;;;;;;;12.49;100;95480.44;;;;
2021/08/18 00:36:16;;;;;;;13.1;7.4;;;;;;;12.49;100;95480.44;;;;
2021/08/18 00:37:16;;;;;;;13.1;7.4;;;;;;;12.49;100;95480.44;;;;
2021/08/18 00:38:17;;;;;;;13.1;7.4;;;;;;;12.49;100;95480.44;;;;
2021/08/18 00:39:17;;;;;;;12.5;7.9;;;;;;;12.47;100;95470.9;;;;
2021/08/18 00:40:18;;;;;;;12.5;7.9;;;;;;;12.47;100;95470.9;;;;
2021/08/18 00:41:20;;;;;;;12.5;7.9;;;;;;;12.47;100;95470.9;;;;
2021/08/18 00:42:21;;;;;;;12.5;7.9;;;;;;;12.47;100;95470.9;;;;
2021/08/18 00:43:21;;;;;;;12.5;7.9;;;;;;;12.47;100;95470.9;;;;
2021/08/18 00:44:22;;;;;;;12.5;7.9;;;;;;;12.47;100;95470.9;;;;
2021/08/18 00:45:23;;;;;;;12.5;7.9;;;;;;;12.47;100;95470.9;;;;
2021/08/18 00:46:23;;;;;;;12.5;7.9;;;;;;;12.47;100;95470.9;;;;
2021/08/18 00:47:23;;;;;;;12.5;7.9;;;;;;;12.47;100;95470.9;;;;
2021/08/18 00:48:24;;;;;;;12.5;7.9;;;;;;;12.47;100;95470.9;;;;
2021/08/18 00:49:24;;;;;;;11.65;8.050001;;;;;;;12.44;100;95477.23;;;;
2021/08/18 00:50:26;;;;;;;11.65;8.050001;;;;;;;12.44;100;95477.23;;;;
2021/08/18 00:51:28;;;;;;;11.65;8.050001;;;;;;;12.44;100;95477.23;;;;
2021/08/18 00:52:28;;;;;;;11.65;8.050001;;;;;;;12.44;100;95477.23;;;;
2021/08/18 00:53:29;;;;;;;11.65;8.050001;;;;;;;12.44;100;95477.23;;;;
2021/08/18 00:54:29;;;;;;;11.65;8.050001;;;;;;;12.44;100;95477.23;;;;
2021/08/18 00:55:30;;;;;;;11.65;8.050001;;;;;;;12.44;100;95477.23;;;;
2021/08/18 00:56:30;;;;;;;11.65;8.050001;;;;;;;12.44;100;95477.23;;;;
2021/08/18 00:57:31;;;;;;;11.65;8.050001;;;;;;;12.44;100;95477.23;;;;
2021/08/18 00:58:32;;;;;;;11.65;8.050001;;;;;;;12.44;100;95477.23;;;;
2021/08/18 00:59:32;;;;;;;11.65;8.050001;;;;;;;12.44;100;95477.23;;;;
2021/08/18 01:00:34;;;;;;;12.7;8.35;;;;;;;12.37;100;95473.86;;;;
2021/08/18 01:01:35;;;;;;;12.7;8.35;;;;;;;12.37;100;95473.86;;;;
2021/08/18 01:02:36;;;;;;;12.7;8.35;;;;;;;12.37;100;95473.86;;;;
2021/08/18 01:03:38;;;;;;;12.7;8.35;;;;;;;12.37;100;95473.86;;;;
2021/08/18 01:04:39;;;;;;;12.7;8.35;;;;;;;12.37;100;95473.86;;;;
2021/08/18 01:05:40;;;;;;;12.7;8.35;;;;;;;12.37;100;95473.86;;;;
2021/08/18 01:06:41;;;;;;;12.7;8.35;;;;;;;12.37;100;95473.86;;;;
2021/08/18 01:07:42;;;;;;;12.7;8.35;;;;;;;12.37;100;95473.86;;;;
2021/08/18 01:08:43;;;;;;;12.7;8.35;;;;;;;12.37;100;95473.86;;;;
2021/08/18 01:09:44;;;;;;;12.7;8.35;;;;;;;12.37;100;95473.86;;;;
2021/08/18 01:10:44;;;;;;;12.25;7.9;;;;;;;12.41;100;95465.12;;;;
2021/08/18 01:11:45;;;;;;;12.25;7.9;;;;;;;12.41;100;95465.12;;;;
2021/08/18 01:12:49;;;;;;;12.25;7.9;;;;;;;12.41;100;95465.12;;;;
2021/08/18 01:13:51;;;;;;;12.25;7.9;;;;;;;12.41;100;95465.12;;;;
2021/08/18 01:14:52;;;;;;;12.25;7.9;;;;;;;12.41;100;95465.12;;;;
2021/08/18 01:15:53;;;;;;;12.25;7.9;;;;;;;12.41;100;95465.12;;;;
2021/08/18 01:16:54;;;;;;;12.25;7.9;;;;;;;12.41;100;95465.12;;;;
2021/08/18 01:17:54;;;;;;;12.25;7.9;;;;;;;12.41;100;95465.12;;;;
2021/08/18 01:18:57;;;;;;;12.25;7.9;;;;;;;12.41;100;95465.12;;;;
2021/08/18 01:19:59;;;;;;;12.25;7.9;;;;;;;12.41;100;95465.12;;;;
2021/08/18 01:21:00;;;;;;;10.9;8.6;;;;;;;12.34;100;95451.72;;;;
2021/08/18 01:22:00;;;;;;;10.9;8.6;;;;;;;12.34;100;95451.72;;;;
2021/08/18 01:23:01;;;;;;;10.9;8.6;;;;;;;12.34;100;95451.72;;;;
2021/08/18 01:24:03;;;;;;;10.9;8.6;;;;;;;12.34;100;95451.72;;;;
2021/08/18 01:25:05;;;;;;;10.9;8.6;;;;;;;12.34;100;95451.72;;;;
2021/08/18 01:26:07;;;;;;;10.9;8.6;;;;;;;12.34;100;95451.72;;;;
2021/08/18 01:27:08;;;;;;;10.9;8.6;;;;;;;12.34;100;95451.72;;;;
2021/08/18 01:28:08;;;;;;;10.9;8.6;;;;;;;12.34;100;95451.72;;;;
2021/08/18 01:29:10;;;;;;;10.9;8.6;;;;;;;12.34;100;95451.72;;;;
2021/08/18 01:30:11;;;;;;;10.9;8.6;;;;;;;12.34;100;95451.72;;;;
2021/08/18 01:31:12;;;;;;;10.9;8.6;;;;;;;12.34;100;95451.72;;;;
2021/08/18 01:32:13;;;;;;;15.7;9.25;;;;;;;12.34;100;95453.63;;;;
2021/08/18 01:33:13;;;;;;;15.7;9.25;;;;;;;12.34;100;95453.63;;;;
2021/08/18 01:34:16;;;;;;;15.7;9.25;;;;;;;12.34;100;95453.63;;;;
2021/08/18 01:35:16;;;;;;;15.7;9.25;;;;;;;12.34;100;95453.63;;;;
2021/08/18 01:36:20;;;;;;;15.7;9.25;;;;;;;12.34;100;95453.63;;;;
2021/08/18 01:37:21;;;;;;;15.7;9.25;;;;;;;12.34;100;95453.63;;;;
2021/08/18 01:38:21;;;;;;;15.7;9.25;;;;;;;12.34;100;95453.63;;;;
2021/08/18 01:39:22;;;;;;;15.7;9.25;;;;;;;12.34;100;95453.63;;;;
2021/08/18 01:40:22;;;;;;;15.7;9.25;;;;;;;12.34;100;95453.63;;;;
2021/08/18 01:41:24;;;;;;;15.7;9.25;;;;;;;12.34;100;95453.63;;;;
2021/08/18 01:42:24;;;;;;;14.6;8.799999;;;;;;;12.35;100;95453.38;;;;
2021/08/18 01:43:25;;;;;;;14.6;8.799999;;;;;;;12.35;100;95453.38;;;;
2021/08/18 01:44:25;;;;;;;14.6;8.799999;;;;;;;12.35;100;95453.38;;;;
2021/08/18 01:45:26;;;;;;;14.6;8.799999;;;;;;;12.35;100;95453.38;;;;
2021/08/18 01:46:29;;;;;;;14.6;8.799999;;;;;;;12.35;100;95453.38;;;;
2021/08/18 01:47:30;;;;;;;14.6;8.799999;;;;;;;12.35;100;95453.38;;;;
2021/08/18 01:48:32;;;;;;;14.6;8.799999;;;;;;;12.35;100;95453.38;;;;
2021/08/18 01:49:33;;;;;;;14.6;8.799999;;;;;;;12.35;100;95453.38;;;;
2021/08/18 01:50:33;;;;;;;14.6;8.799999;;;;;;;12.35;100;95453.38;;;;
2021/08/18 01:51:34;;;;;;;14.6;8.799999;;;;;;;12.35;100;95453.38;;;;
2021/08/18 01:52:35;;;;;;;14.6;8.799999;;;;;;;12.35;100;95453.38;;;;
2021/08/18 01:53:36;;;;;;;13.7;8.999999;;;;;;;12.34;100;95459.05;;;;
2021/08/18 01:54:41;;;;;;;13.7;8.999999;;;;;;;12.34;100;95459.05;;;;
2021/08/18 01:55:42;;;;;;;13.7;8.999999;;;;;;;12.34;100;95459.05;;;;
2021/08/18 01:56:43;;;;;;;13.7;8.999999;;;;;;;12.34;100;95459.05;;;;
2021/08/18 01:57:43;;;;;;;13.7;8.999999;;;;;;;12.34;100;95459.05;;;;
2021/08/18 01:58:44;;;;;;;13.7;8.999999;;;;;;;12.34;100;95459.05;;;;
2021/08/18 01:59:47;;;;;;;13.7;8.999999;;;;;;;12.34;100;95459.05;;;;
2021/08/18 02:00:47;;;;;;;13.7;8.999999;;;;;;;12.34;100;95459.05;;;;
2021/08/18 02:01:48;;;;;;;13.7;8.999999;;;;;;;12.34;100;95459.05;;;;
2021/08/18 02:02:49;;;;;;;13.7;8.999999;;;;;;;12.34;100;95459.05;;;;
2021/08/18 02:03:50;;;;;;;13.5;8.1;;;;;;;12.34;100;95455.36;;;;
2021/08/18 02:04:50;;;;;;;13.5;8.1;;;;;;;12.34;100;95455.36;;;;
2021/08/18 02:05:51;;;;;;;13.5;8.1;;;;;;;12.34;100;95455.36;;;;
2021/08/18 02:06:52;;;;;;;13.5;8.1;;;;;;;12.34;100;95455.36;;;;
2021/08/18 02:07:52;;;;;;;13.5;8.1;;;;;;;12.34;100;95455.36;;;;
2021/08/18 02:08:53;;;;;;;13.5;8.1;;;;;;;12.34;100;95455.36;;;;
2021/08/18 02:09:54;;;;;;;13.5;8.1;;;;;;;12.34;100;95455.36;;;;
2021/08/18 02:10:54;;;;;;;13.5;8.1;;;;;;;12.34;100;95455.36;;;;
2021/08/18 02:11:55;;;;;;;13.5;8.1;;;;;;;12.34;100;95455.36;;;;
2021/08/18 02:12:56;;;;;;;13.5;8.1;;;;;;;12.34;100;95455.36;;;;
2021/08/18 02:13:56;;;;;;;13.5;8.1;;;;;;;12.34;100;95455.36;;;;
2021/08/18 02:14:57;;;;;;;15.5;8.950001;;;;;;;12.29;100;95445.79;;;;
2021/08/18 02:15:58;;;;;;;15.5;8.950001;;;;;;;12.29;100;95445.79;;;;
2021/08/18 02:16:58;;;;;;;15.5;8.950001;;;;;;;12.29;100;95445.79;;;;
2021/08/18 02:17:59;;;;;;;15.5;8.950001;;;;;;;12.29;100;95445.79;;;;
2021/08/18 02:19:01;;;;;;;15.5;8.950001;;;;;;;12.29;100;95445.79;;;;
2021/08/18 02:20:02;;;;;;;15.5;8.950001;;;;;;;12.29;100;95445.79;;;;
2021/08/18 02:21:04;;;;;;;15.5;8.950001;;;;;;;12.29;100;95445.79;;;;
2021/08/18 02:22:05;;;;;;;15.5;8.950001;;;;;;;12.29;100;95445.79;;;;
2021/08/18 02:23:06;;;;;;;15.5;8.950001;;;;;;;12.29;100;95445.79;;;;
2021/08/18 02:24:07;;;;;;;15.5;8.950001;;;;;;;12.29;100;95445.79;;;;
2021/08/18 02:25:07;;;;;;;14.25;8.349999;;;;;;;12.29;100;95448.92;;;;
2021/08/18 02:26:10;;;;;;;14.25;8.349999;;;;;;;12.29;100;95448.92;;;;
2021/08/18 02:27:10;;;;;;;14.25;8.349999;;;;;;;12.29;100;95448.92;;;;
2021/08/18 02:28:11;;;;;;;14.25;8.349999;;;;;;;12.29;100;95448.92;;;;
2021/08/18 02:29:11;;;;;;;14.25;8.349999;;;;;;;12.29;100;95448.92;;;;
2021/08/18 02:30:12;;;;;;;14.25;8.349999;;;;;;;12.29;100;95448.92;;;;
2021/08/18 02:31:16;;;;;;;14.25;8.349999;;;;;;;12.29;100;95448.92;;;;
2021/08/18 02:32:17;;;;;;;14.25;8.349999;;;;;;;12.29;100;95448.92;;;;
2021/08/18 02:33:17;;;;;;;14.25;8.349999;;;;;;;12.29;100;95448.92;;;;
2021/08/18 02:34:19;;;;;;;14.25;8.349999;;;;;;;12.29;100;95448.92;;;;
2021/08/18 02:35:19;;;;;;;14.25;8.349999;;;;;;;12.29;100;95448.92;;;;
2021/08/18 02:36:21;;;;;;;16.2;9.200001;;;;;;;12.32;100;95441.66;;;;
2021/08/18 02:37:22;;;;;;;16.2;9.200001;;;;;;;12.32;100;95441.66;;;;
2021/08/18 02:38:22;;;;;;;16.2;9.200001;;;;;;;12.32;100;95441.66;;;;
2021/08/18 02:39:23;;;;;;;16.2;9.200001;;;;;;;12.32;100;95441.66;;;;
2021/08/18 02:40:23;;;;;;;16.2;9.200001;;;;;;;12.32;100;95441.66;;;;
2021/08/18 02:41:27;;;;;;;16.2;9.200001;;;;;;;12.32;100;95441.66;;;;
2021/08/18 02:42:27;;;;;;;16.2;9.200001;;;;;;;12.32;100;95441.66;;;;
2021/08/18 02:43:28;;;;;;;16.2;9.200001;;;;;;;12.32;100;95441.66;;;;
2021/08/18 02:44:28;;;;;;;16.2;9.200001;;;;;;;12.32;100;95441.66;;;;
2021/08/18 02:45:29;;;;;;;16.2;9.200001;;;;;;;12.32;100;95441.66;;;;
2021/08/18 02:46:32;;;;;;;18.25;9.9;;;;;;;12.36;100;95440.26;;;;
2021/08/18 02:47:32;;;;;;;18.25;9.9;;;;;;;12.36;100;95440.26;;;;
2021/08/18 02:48:34;;;;;;;18.25;9.9;;;;;;;12.36;100;95440.26;;;;
2021/08/18 02:49:34;;;;;;;18.25;9.9;;;;;;;12.36;100;95440.26;;;;
2021/08/18 02:50:35;;;;;;;18.25;9.9;;;;;;;12.36;100;95440.26;;;;
2021/08/18 02:51:35;;;;;;;18.25;9.9;;;;;;;12.36;100;95440.26;;;;
2021/08/18 02:52:36;;;;;;;18.25;9.9;;;;;;;12.36;100;95440.26;;;;
2021/08/18 02:53:37;;;;;;;18.25;9.9;;;;;;;12.36;100;95440.26;;;;
2021/08/18 02:54:37;;;;;;;18.25;9.9;;;;;;;12.36;100;95440.26;;;;
2021/08/18 02:55:38;;;;;;;18.25;9.9;;;;;;;12.36;100;95440.26;;;;
2021/08/18 02:56:39;;;;;;;18.25;9.9;;;;;;;12.36;100;95440.26;;;;
2021/08/18 02:57:40;;;;;;;15.85;9.950002;;;;;;;12.4;100;95444.09;;;;
2021/08/18 02:58:40;;;;;;;15.85;9.950002;;;;;;;12.4;100;95444.09;;;;
2021/08/18 02:59:41;;;;;;;15.85;9.950002;;;;;;;12.4;100;95444.09;;;;
2021/08/18 03:00:41;;;;;;;15.85;9.950002;;;;;;;12.4;100;95444.09;;;;
2021/08/18 03:01:42;;;;;;;15.85;9.950002;;;;;;;12.4;100;95444.09;;;;
2021/08/18 03:02:43;;;;;;;15.85;9.950002;;;;;;;12.4;100;95444.09;;;;
2021/08/18 03:03:43;;;;;;;15.85;9.950002;;;;;;;12.4;100;95444.09;;;;
2021/08/18 03:04:44;;;;;;;15.85;9.950002;;;;;;;12.4;100;95444.09;;;;
2021/08/18 03:05:45;;;;;;;15.85;9.950002;;;;;;;12.4;100;95444.09;;;;
2021/08/18 03:06:46;;;;;;;15.85;9.950002;;;;;;;12.4;100;95444.09;;;;
2021/08/18 03:07:46;;;;;;;16.8;9.749999;;;;;;;12.43;100;95436.72;;;;
2021/08/18 03:08:47;;;;;;;16.8;9.749999;;;;;;;12.43;100;95436.72;;;;
2021/08/18 03:09:47;;;;;;;16.8;9.749999;;;;;;;12.43;100;95436.72;;;;
2021/08/18 03:10:48;;;;;;;16.8;9.749999;;;;;;;12.43;100;95436.72;;;;
2021/08/18 03:11:49;;;;;;;16.8;9.749999;;;;;;;12.43;100;95436.72;;;;
2021/08/18 03:12:49;;;;;;;16.8;9.749999;;;;;;;12.43;100;95436.72;;;;
2021/08/18 03:13:50;;;;;;;16.8;9.749999;;;;;;;12.43;100;95436.72;;;;
2021/08/18 03:14:51;;;;;;;16.8;9.749999;;;;;;;12.43;100;95436.72;;;;
2021/08/18 03:15:51;;;;;;;16.8;9.749999;;;;;;;12.43;100;95436.72;;;;
2021/08/18 03:16:52;;;;;;;16.8;9.749999;;;;;;;12.43;100;95436.72;;;;
2021/08/18 03:17:52;;;;;;;16.8;9.749999;;;;;;;12.43;100;95436.72;;;;
2021/08/18 03:18:53;;;;;;;17.3;9.85;;;;;;;12.5;100;95425.2;;;;
2021/08/18 03:19:53;;;;;;;17.3;9.85;;;;;;;12.5;100;95425.2;;;;
2021/08/18 03:20:54;;;;;;;17.3;9.85;;;;;;;12.5;100;95425.2;;;;
2021/08/18 03:21:54;;;;;;;17.3;9.85;;;;;;;12.5;100;95425.2;;;;
2021/08/18 03:22:55;;;;;;;17.3;9.85;;;;;;;12.5;100;95425.2;;;;
2021/08/18 03:23:55;;;;;;;17.3;9.85;;;;;;;12.5;100;95425.2;;;;
2021/08/18 03:24:56;;;;;;;17.3;9.85;;;;;;;12.5;100;95425.2;;;;
2021/08/18 03:25:56;;;;;;;17.3;9.85;;;;;;;12.5;100;95425.2;;;;
2021/08/18 03:26:57;;;;;;;17.3;9.85;;;;;;;12.5;100;95425.2;;;;
2021/08/18 03:27:57;;;;;;;17.3;9.85;;;;;;;12.5;100;95425.2;;;;
2021/08/18 03:28:58;;;;;;;19.55;11;;;;;;;12.54;100;95423.66;;;;
2021/08/18 03:29:58;;;;;;;19.55;11;;;;;;;12.54;100;95423.66;;;;
2021/08/18 03:30:59;;;;;;;19.55;11;;;;;;;12.54;100;95423.66;;;;
2021/08/18 03:31:59;;;;;;;19.55;11;;;;;;;12.54;100;95423.66;;;;
2021/08/18 03:33:00;;;;;;;19.55;11;;;;;;;12.54;100;95423.66;;;;
2021/08/18 03:34:00;;;;;;;19.55;11;;;;;;;12.54;100;95423.66;;;;
2021/08/18 03:35:02;;;;;;;19.55;11;;;;;;;12.54;100;95423.66;;;;
2021/08/18 03:36:05;;;;;;;19.55;11;;;;;;;12.54;100;95423.66;;;;
2021/08/18 03:37:05;;;;;;;19.55;11;;;;;;;12.54;100;95423.66;;;;
2021/08/18 03:38:05;;;;;;;19.55;11;;;;;;;12.54;100;95423.66;;;;
2021/08/18 03:39:06;;;;;;;19.55;11;;;;;;;12.54;100;95423.66;;;;
2021/08/18 03:40:06;;;;;;;19.55;10.5;;;;;;;12.56;100;95428.3;;;;
2021/08/18 03:41:08;;;;;;;19.55;10.5;;;;;;;12.56;100;95428.3;;;;
2021/08/18 03:42:09;;;;;;;19.55;10.5;;;;;;;12.56;100;95428.3;;;;
2021/08/18 03:43:09;;;;;;;19.55;10.5;;;;;;;12.56;100;95428.3;;;;
2021/08/18 03:44:10;;;;;;;19.55;10.5;;;;;;;12.56;100;95428.3;;;;
2021/08/18 03:45:10;;;;;;;19.55;10.5;;;;;;;12.56;100;95428.3;;;;
2021/08/18 03:46:11;;;;;;;19.55;10.5;;;;;;;12.56;100;95428.3;;;;
2021/08/18 03:47:12;;;;;;;19.55;10.5;;;;;;;12.56;100;95428.3;;;;
2021/08/18 03:48:13;;;;;;;19.55;10.5;;;;;;;12.56;100;95428.3;;;;
2021/08/18 03:49:13;;;;;;;19.55;10.5;;;;;;;12.56;100;95428.3;;;;
2021/08/18 03:50:14;;;;;;;19.55;10.5;;;;;;;12.56;100;95428.3;;;;
2021/08/18 03:51:14;;;;;;;19.55;10.5;;;;;;;12.56;100;95428.3;;;;
2021/08/18 03:52:15;;;;;;;19.55;10.5;;;;;;;12.56;100;95428.3;;;;
2021/08/18 03:53:15;;;;;;;19.55;10.5;;;;;;;12.56;100;95428.3;;;;
2021/08/18 03:54:17;;;;;;;19.55;10.5;;;;;;;12.56;100;95428.3;;;;
2021/08/18 03:55:17;;;;;;;19.55;10.5;;;;;;;12.56;100;95428.3;;;;
2021/08/18 03:56:18;;;;;;;19.55;10.5;;;;;;;12.56;100;95428.3;;;;
2021/08/18 03:57:19;;;;;;;19.55;10.5;;;;;;;12.56;100;95428.3;;;;
2021/08/18 03:58:19;;;;;;;19.55;10.5;;;;;;;12.56;100;95428.3;;;;
2021/08/18 03:59:20;;;;;;;19.55;10.5;;;;;;;12.56;100;95428.3;;;;
2021/08/18 04:00:21;;;;;;;19.55;10.5;;;;;;;12.56;100;95428.3;;;;
2021/08/18 04:01:22;;;;;;;16.25;9.9;;;;;;;12.59;100;95440.93;;;;
2021/08/18 04:02:22;;;;;;;16.25;9.9;;;;;;;12.59;100;95440.93;;;;
2021/08/18 04:03:22;;;;;;;16.25;9.9;;;;;;;12.59;100;95440.93;;;;
2021/08/18 04:04:23;;;;;;;16.25;9.9;;;;;;;12.59;100;95440.93;;;;
2021/08/18 04:05:23;;;;;;;16.25;9.9;;;;;;;12.59;100;95440.93;;;;
2021/08/18 04:06:24;;;;;;;16.25;9.9;;;;;;;12.59;100;95440.93;;;;
2021/08/18 04:07:24;;;;;;;16.25;9.9;;;;;;;12.59;100;95440.93;;;;
2021/08/18 04:08:25;;;;;;;16.25;9.9;;;;;;;12.59;100;95440.93;;;;
2021/08/18 04:09:25;;;;;;;16.25;9.9;;;;;;;12.59;100;95440.93;;;;
2021/08/18 04:10:26;;;;;;;16.25;9.9;;;;;;;12.59;100;95440.93;;;;
2021/08/18 04:11:26;;;;;;;16.25;9.9;;;;;;;12.59;100;95440.93;;;;
2021/08/18 04:12:27;;;;;;;17.15;10.1;;;;;;;12.62;100;95451.29;;;;
2021/08/18 04:13:27;;;;;;;17.15;10.1;;;;;;;12.62;100;95451.29;;;;
2021/08/18 04:14:28;;;;;;;17.15;10.1;;;;;;;12.62;100;95451.29;;;;
2021/08/18 04:15:28;;;;;;;17.15;10.1;;;;;;;12.62;100;95451.29;;;;
2021/08/18 04:16:33;;;;;;;17.15;10.1;;;;;;;12.62;100;95451.29;;;;
2021/08/18 04:17:34;;;;;;;17.15;10.1;;;;;;;12.62;100;95451.29;;;;
2021/08/18 04:18:34;;;;;;;17.15;10.1;;;;;;;12.62;100;95451.29;;;;
2021/08/18 04:19:36;;;;;;;17.15;10.1;;;;;;;12.62;100;95451.29;;;;
2021/08/18 04:20:37;;;;;;;17.15;10.1;;;;;;;12.62;100;95451.29;;;;
2021/08/18 04:21:38;;;;;;;17.15;10.1;;;;;;;12.62;100;95451.29;;;;
2021/08/18 04:22:40;;;;;;;17.9;10.5;;;;;;;12.68;100;95458.04;;;;
2021/08/18 04:23:41;;;;;;;17.9;10.5;;;;;;;12.68;100;95458.04;;;;
2021/08/18 04:24:42;;;;;;;17.9;10.5;;;;;;;12.68;100;95458.04;;;;
2021/08/18 04:25:43;;;;;;;17.9;10.5;;;;;;;12.68;100;95458.04;;;;
2021/08/18 04:26:43;;;;;;;17.9;10.5;;;;;;;12.68;100;95458.04;;;;
2021/08/18 04:27:44;;;;;;;17.9;10.5;;;;;;;12.68;100;95458.04;;;;
2021/08/18 04:28:44;;;;;;;17.9;10.5;;;;;;;12.68;100;95458.04;;;;
2021/08/18 04:29:45;;;;;;;17.9;10.5;;;;;;;12.68;100;95458.04;;;;
2021/08/18 04:30:45;;;;;;;17.9;10.5;;;;;;;12.68;100;95458.04;;;;
2021/08/18 04:31:46;;;;;;;17.9;10.5;;;;;;;12.68;100;95458.04;;;;
2021/08/18 04:32:46;;;;;;;17.9;10.5;;;;;;;12.68;100;95458.04;;;;
2021/08/18 04:33:47;;;;;;;16.05;10.05;;;;;;;12.69;100;95462.91;;;;
2021/08/18 04:34:47;;;;;;;16.05;10.05;;;;;;;12.69;100;95462.91;;;;
2021/08/18 04:35:48;;;;;;;16.05;10.05;;;;;;;12.69;100;95462.91;;;;
2021/08/18 04:36:48;;;;;;;16.05;10.05;;;;;;;12.69;100;95462.91;;;;
2021/08/18 04:37:49;;;;;;;16.05;10.05;;;;;;;12.69;100;95462.91;;;;
2021/08/18 04:38:50;;;;;;;16.05;10.05;;;;;;;12.69;100;95462.91;;;;
2021/08/18 04:39:50;;;;;;;16.05;10.05;;;;;;;12.69;100;95462.91;;;;
2021/08/18 04:40:51;;;;;;;16.05;10.05;;;;;;;12.69;100;95462.91;;;;
2021/08/18 04:41:51;;;;;;;16.05;10.05;;;;;;;12.69;100;95462.91;;;;
2021/08/18 04:42:52;;;;;;;16.05;10.05;;;;;;;12.69;100;95462.91;;;;
2021/08/18 04:43:52;;;;;;;16.05;10.05;;;;;;;12.69;100;95462.91;;;;
2021/08/18 04:44:53;;;;;;;16.05;10.05;;;;;;;12.69;100;95462.91;;;;
2021/08/18 04:45:53;;;;;;;16.05;10.05;;;;;;;12.69;100;95462.91;;;;
2021/08/18 04:46:54;;;;;;;16.05;10.05;;;;;;;12.69;100;95462.91;;;;
2021/08/18 04:47:54;;;;;;;16.05;10.05;;;;;;;12.69;100;95462.91;;;;
2021/08/18 04:48:55;;;;;;;16.05;10.05;;;;;;;12.69;100;95462.91;;;;
2021/08/18 04:49:55;;;;;;;16.05;10.05;;;;;;;12.69;100;95462.91;;;;
2021/08/18 04:50:56;;;;;;;16.05;10.05;;;;;;;12.69;100;95462.91;;;;
2021/08/18 04:51:56;;;;;;;16.05;10.05;;;;;;;12.69;100;95462.91;;;;
2021/08/18 04:52:57;;;;;;;16.05;10.05;;;;;;;12.69;100;95462.91;;;;
2021/08/18 04:53:58;;;;;;;16.05;10.05;;;;;;;12.69;100;95462.91;;;;
2021/08/18 04:54:58;;;;;;;18.25;10.45;;;;;;;12.88;100;95468.27;;;;
2021/08/18 04:55:59;;;;;;;18.25;10.45;;;;;;;12.88;100;95468.27;;;;
2021/08/18 04:57:00;;;;;;;18.25;10.45;;;;;;;12.88;100;95468.27;;;;
2021/08/18 04:58:00;;;;;;;18.25;10.45;;;;;;;12.88;100;95468.27;;;;
2021/08/18 04:59:01;;;;;;;18.25;10.45;;;;;;;12.88;100;95468.27;;;;
2021/08/18 05:00:01;;;;;;;18.25;10.45;;;;;;;12.88;100;95468.27;;;;
2021/08/18 05:01:04;;;;;;;18.25;10.45;;;;;;;12.88;100;95468.27;;;;
2021/08/18 05:02:05;;;;;;;18.25;10.45;;;;;;;12.88;100;95468.27;;;;
2021/08/18 05:03:05;;;;;;;18.25;10.45;;;;;;;12.88;100;95468.27;;;;
2021/08/18 05:04:10;;;;;;;18.25;10.45;;;;;;;12.88;100;95468.27;;;;
2021/08/18 05:05:11;;;;;;;16.4;10.2;;;;;;;13.03;100;95467.21;;;;
2021/08/18 05:06:12;;;;;;;16.4;10.2;;;;;;;13.03;100;95467.21;;;;
2021/08/18 05:07:12;;;;;;;16.4;10.2;;;;;;;13.03;100;95467.21;;;;
2021/08/18 05:08:13;;;;;;;16.4;10.2;;;;;;;13.03;100;95467.21;;;;
2021/08/18 05:09:14;;;;;;;16.4;10.2;;;;;;;13.03;100;95467.21;;;;
2021/08/18 05:10:14;;;;;;;16.4;10.2;;;;;;;13.03;100;95467.21;;;;
2021/08/18 05:11:15;;;;;;;16.4;10.2;;;;;;;13.03;100;95467.21;;;;
2021/08/18 05:12:15;;;;;;;16.4;10.2;;;;;;;13.03;100;95467.21;;;;
2021/08/18 05:13:16;;;;;;;16.4;10.2;;;;;;;13.03;100;95467.21;;;;
2021/08/18 05:14:16;;;;;;;16.4;10.2;;;;;;;13.03;100;95467.21;;;;
2021/08/18 05:15:17;;;;;;;16.4;10.2;;;;;;;13.03;100;95467.21;;;;
2021/08/18 05:16:17;;;;;;;20.6;11.4;;;;;;;13.18;100;95472.47;;;;
2021/08/18 05:17:18;;;;;;;20.6;11.4;;;;;;;13.18;100;95472.47;;;;
2021/08/18 05:18:18;;;;;;;20.6;11.4;;;;;;;13.18;100;95472.47;;;;
2021/08/18 05:19:19;;;;;;;20.6;11.4;;;;;;;13.18;100;95472.47;;;;
2021/08/18 05:20:20;;;;;;;20.6;11.4;;;;;;;13.18;100;95472.47;;;;
2021/08/18 05:21:21;;;;;;;20.6;11.4;;;;;;;13.18;100;95472.47;;;;
2021/08/18 05:22:22;;;;;;;20.6;11.4;;;;;;;13.18;100;95472.47;;;;
2021/08/18 05:23:22;;;;;;;20.6;11.4;;;;;;;13.18;100;95472.47;;;;
2021/08/18 05:24:23;;;;;;;20.6;11.4;;;;;;;13.18;100;95472.47;;;;
2021/08/18 05:25:23;;;;;;;20.6;11.4;;;;;;;13.18;100;95472.47;;;;
2021/08/18 05:26:24;;;;;;;19.5;11.45;;;;;;;13.35;100;95476.11;;;;
2021/08/18 05:27:25;;;;;;;19.5;11.45;;;;;;;13.35;100;95476.11;;;;
2021/08/18 05:28:25;;;;;;;19.5;11.45;;;;;;;13.35;100;95476.11;;;;
2021/08/18 05:29:26;;;;;;;19.5;11.45;;;;;;;13.35;100;95476.11;;;;
2021/08/18 05:30:26;;;;;;;19.5;11.45;;;;;;;13.35;100;95476.11;;;;
2021/08/18 05:31:27;;;;;;;19.5;11.45;;;;;;;13.35;100;95476.11;;;;
2021/08/18 05:32:27;;;;;;;19.5;11.45;;;;;;;13.35;100;95476.11;;;;
2021/08/18 05:33:27;;;;;;;19.5;11.45;;;;;;;13.35;100;95476.11;;;;
2021/08/18 05:34:28;;;;;;;19.5;11.45;;;;;;;13.35;100;95476.11;;;;
2021/08/18 05:35:29;;;;;;;19.5;11.45;;;;;;;13.35;100;95476.11;;;;
2021/08/18 05:36:29;;;;;;;19.5;11.45;;;;;;;13.35;100;95476.11;;;;
2021/08/18 05:37:29;;;;;;;19.8;11.9;;;;;;;13.49;100;95482.83;;;;
2021/08/18 05:38:30;;;;;;;19.8;11.9;;;;;;;13.49;100;95482.83;;;;
2021/08/18 05:39:30;;;;;;;19.8;11.9;;;;;;;13.49;100;95482.83;;;;
2021/08/18 05:40:31;;;;;;;19.8;11.9;;;;;;;13.49;100;95482.83;;;;
2021/08/18 05:41:32;;;;;;;19.8;11.9;;;;;;;13.49;100;95482.83;;;;
2021/08/18 05:42:33;;;;;;;19.8;11.9;;;;;;;13.49;100;95482.83;;;;
2021/08/18 05:43:34;;;;;;;19.8;11.9;;;;;;;13.49;100;95482.83;;;;
2021/08/18 05:44:35;;;;;;;19.8;11.9;;;;;;;13.49;100;95482.83;;;;
2021/08/18 05:45:35;;;;;;;19.8;11.9;;;;;;;13.49;100;95482.83;;;;
2021/08/18 05:46:36;;;;;;;19.8;11.9;;;;;;;13.49;100;95482.83;;;;
2021/08/18 05:47:36;;;;;;;19.8;11.9;;;;;;;13.49;100;95482.83;;;;
2021/08/18 05:48:37;;;;;;;20.55;12.75;;;;;;;13.63;100;95481.4;;;;
2021/08/18 05:49:37;;;;;;;20.55;12.75;;;;;;;13.63;100;95481.4;;;;
2021/08/18 05:50:38;;;;;;;20.55;12.75;;;;;;;13.63;100;95481.4;;;;
2021/08/18 05:51:38;;;;;;;20.55;12.75;;;;;;;13.63;100;95481.4;;;;
2021/08/18 05:52:39;;;;;;;20.55;12.75;;;;;;;13.63;100;95481.4;;;;
2021/08/18 05:53:40;;;;;;;20.55;12.75;;;;;;;13.63;100;95481.4;;;;
2021/08/18 05:54:40;;;;;;;20.55;12.75;;;;;;;13.63;100;95481.4;;;;
2021/08/18 05:55:41;;;;;;;20.55;12.75;;;;;;;13.63;100;95481.4;;;;
2021/08/18 05:56:41;;;;;;;20.55;12.75;;;;;;;13.63;100;95481.4;;;;
2021/08/18 05:57:42;;;;;;;20.55;12.75;;;;;;;13.63;100;95481.4;;;;
2021/08/18 05:58:42;;;;;;;23.25;12.85;;;;;;;13.85;100;95481.28;;;;
2021/08/18 05:59:43;;;;;;;23.25;12.85;;;;;;;13.85;100;95481.28;;;;
2021/08/18 06:00:43;;;;;;;23.25;12.85;;;;;;;13.85;100;95481.28;;;;
2021/08/18 06:01:44;;;;;;;23.25;12.85;;;;;;;13.85;100;95481.28;;;;
2021/08/18 06:02:45;;;;;;;23.25;12.85;;;;;;;13.85;100;95481.28;;;;
2021/08/18 06:03:47;;;;;;;23.25;12.85;;;;;;;13.85;100;95481.28;;;;